Home PIREPS Pireps

Flight BEL862

  • Submitted By: Serge Morabito
  • Departure Airport: Bruxelles National (EBBR)
  • Arrival Airport: JFK Airport (KJFK)
  • Aircraft: YOUR CHOICE (YC)
  • Flight Time: 08.09
  • Date Submitted: 20/09/2016
  • Route: DENUT UL610 KOPUL DCT CPT UL9 STU UN546 BAKUR DCT RESNO DCT 5620N 5830N 5940N 5850N DCT HOIST N598C QUBIS DCT PQI J55 ENE
  • Status: Accepted
Flight Details
Gross Revenue:
(20 load / € 0.00 per unit
€ 0.00
Fuel Cost:
(52782 fuel used @ 0 / unit)
€ 0.00

Additional Log Information:

View Log

Aircraft Used in flight is SSG B748-Inter_V1.4 Lufthansa
10:22 Brakes are On
10:31 Brakes are Released
10:38 Brakes are On
10:39 Brakes are Released
10:43 Brakes are On
10:43 Brakes are Released
10:45 Brakes are On
10:47 Brakes are Released
10:48 You Took off @ 125 Knots and Flaps at Position 5
Departure Weather
EBBR 200820Z 12001KT CAVOK 16/11 Q1020 NOSIGrn
10:48 You Landed @ 130 Knots and with 0 Vertical Speed
Arrival Weather
KJFK 200751Z 05003KT 10SM FEW005 BKN050 BKN120 BKN250 21/20 A3007 RMK AO2 SLP183 T02060200rn
10:48 Landing Gear Up @ 166 Knots and 1230 Feet
10:49 Below FL100 you need to turn on the landing lights
18:03 You exceeded maximum bank angle
18:16 Landing Gear Down @ 160 Knots and 1960 Feet
18:20 Brakes are On
18:21 Brakes are Released
18:21 Brakes are On
18:21 Brakes are Released
18:21 Brakes are On
18:21 Brakes are Released
18:21 Brakes are On
18:21 Brakes are Released
18:29 Brakes are On
18:29 Brakes are Released
18:29 Brakes are On
18:31 Brussels Bel-Track1.0.1.2

Route Map

Corporate About Us Our Team Vacancies Information Fleet Route Network Rules and Regulations Operations Flight Schedules Event Center Tours Partners IVAO Vatsim Acars dev FSCB

fb Users Online Belgium John Smits,
1 Pilot(s) and 122 Guest(s) Online
CMS by phpVMS - Design by Crazycreatives.com - Copyright © 2019 - Brussels Airlines Virtual